createdAt,value
2019-02-02T00:02:09.619Z,2.00
2019-02-02T00:06:17.895Z,2.00
2019-02-02T00:10:26.195Z,1.90
2019-02-02T00:14:34.459Z,1.90
2019-02-02T00:18:42.735Z,1.90
2019-02-02T00:22:50.986Z,2.00
2019-02-02T00:26:59.229Z,2.00
2019-02-02T00:31:07.524Z,2.00
2019-02-02T00:35:15.814Z,1.90
2019-02-02T00:39:24.043Z,1.80
2019-02-02T00:43:32.298Z,1.80
2019-02-02T00:47:40.551Z,1.80
2019-02-02T00:51:48.858Z,1.80
2019-02-02T00:55:57.105Z,1.70
2019-02-02T01:00:05.913Z,1.70
2019-02-02T01:04:14.170Z,1.70
2019-02-02T01:08:22.454Z,1.80
2019-02-02T01:12:30.731Z,1.80
2019-02-02T01:16:38.996Z,1.80
2019-02-02T01:20:47.342Z,1.80
2019-02-02T01:24:55.598Z,1.80
2019-02-02T01:29:03.952Z,1.90
2019-02-02T01:33:12.175Z,1.80
2019-02-02T01:37:20.436Z,1.80
2019-02-02T01:41:28.725Z,1.90
2019-02-02T01:45:36.998Z,1.90
2019-02-02T01:49:45.255Z,2.00
2019-02-02T01:53:53.482Z,2.00
2019-02-02T01:58:01.734Z,2.00
2019-02-02T02:02:09.993Z,1.90
2019-02-02T02:06:18.231Z,1.80
2019-02-02T02:10:26.494Z,1.80
2019-02-02T02:14:34.776Z,1.80
2019-02-02T02:18:43.051Z,1.90
2019-02-02T02:22:51.382Z,1.90
2019-02-02T02:26:59.631Z,2.00
2019-02-02T02:31:07.917Z,2.00
2019-02-02T02:35:16.172Z,2.00
2019-02-02T02:39:24.431Z,2.00
2019-02-02T02:43:32.760Z,2.00
2019-02-02T02:47:41.062Z,2.00
2019-02-02T02:51:49.342Z,2.00
2019-02-02T02:55:57.602Z,2.00
2019-02-02T03:00:09.614Z,1.90
2019-02-02T03:04:17.913Z,2.00
2019-02-02T03:08:26.177Z,1.90
2019-02-02T03:12:34.445Z,2.00
2019-02-02T03:16:42.721Z,2.00
2019-02-02T03:20:51.024Z,2.10
2019-02-02T03:24:59.231Z,2.10
2019-02-02T03:29:07.493Z,2.10
2019-02-02T03:33:15.783Z,2.10
2019-02-02T03:37:24.066Z,2.20
2019-02-02T03:41:32.297Z,2.20
2019-02-02T03:45:41.090Z,2.20
2019-02-02T03:49:48.854Z,2.20
2019-02-02T03:54:08.230Z,2.10
2019-02-02T03:58:05.510Z,2.10
2019-02-02T04:02:13.761Z,2.10
2019-02-02T04:06:22.031Z,2.10
2019-02-02T04:10:30.252Z,2.00
2019-02-02T04:14:38.507Z,2.00
2019-02-02T04:18:46.784Z,2.10
2019-02-02T04:22:55.076Z,2.00
2019-02-02T04:27:03.346Z,2.00
2019-02-02T04:31:11.579Z,2.00
2019-02-02T04:35:19.826Z,2.00
2019-02-02T04:39:28.110Z,2.10
2019-02-02T04:43:36.360Z,2.10
2019-02-02T04:47:44.633Z,2.10
2019-02-02T04:51:52.884Z,2.10
2019-02-02T04:56:01.155Z,2.10
2019-02-02T05:00:12.928Z,2.10
2019-02-02T05:04:21.207Z,2.00
2019-02-02T05:08:29.495Z,2.10
2019-02-02T05:12:37.806Z,2.10
2019-02-02T05:16:46.069Z,2.20
2019-02-02T05:20:54.324Z,2.20
2019-02-02T05:25:02.586Z,2.20
2019-02-02T05:29:10.837Z,2.20
2019-02-02T05:33:19.085Z,2.20
2019-02-02T05:37:27.331Z,2.20
2019-02-02T05:41:35.582Z,2.20
2019-02-02T05:45:43.846Z,2.20
2019-02-02T05:49:53.022Z,2.20
2019-02-02T05:54:01.270Z,2.20
2019-02-02T05:58:09.539Z,2.20
2019-02-02T06:02:17.786Z,2.20
2019-02-02T06:06:26.030Z,2.20
2019-02-02T06:10:34.270Z,2.20
2019-02-02T06:14:42.513Z,2.10
2019-02-02T06:18:50.763Z,2.10
2019-02-02T06:22:59.023Z,2.10
2019-02-02T06:27:07.275Z,2.10
2019-02-02T06:31:15.506Z,2.10
2019-02-02T06:35:23.802Z,2.10
2019-02-02T06:39:32.080Z,2.10
2019-02-02T06:43:40.354Z,2.10
2019-02-02T06:47:48.577Z,2.00
2019-02-02T06:51:56.847Z,2.10
2019-02-02T06:56:05.254Z,2.00
2019-02-02T07:00:16.476Z,1.90
2019-02-02T07:04:24.392Z,2.00
2019-02-02T07:08:32.651Z,2.00
2019-02-02T07:12:40.857Z,2.00
2019-02-02T07:16:49.105Z,1.80
2019-02-02T07:25:05.610Z,1.80
2019-02-02T07:29:13.957Z,1.80
2019-02-02T07:33:22.374Z,1.80
2019-02-02T07:37:30.666Z,1.80
2019-02-02T07:41:41.115Z,1.90
2019-02-02T07:45:47.166Z,1.90
2019-02-02T07:49:55.493Z,2.00
2019-02-02T07:54:03.750Z,2.10
2019-02-02T07:58:11.984Z,2.00
2019-02-02T08:02:20.260Z,2.10
2019-02-02T08:06:28.526Z,2.10
2019-02-02T08:10:36.779Z,2.20
2019-02-02T08:14:45.053Z,2.20
2019-02-02T08:18:53.338Z,2.30
2019-02-02T08:23:01.632Z,2.30
2019-02-02T08:27:09.902Z,2.30
2019-02-02T08:31:18.129Z,2.30
2019-02-02T08:35:26.390Z,2.40
2019-02-02T08:39:34.643Z,2.40
2019-02-02T08:43:42.909Z,2.40
2019-02-02T08:47:51.263Z,2.50
2019-02-02T08:51:59.543Z,2.50
2019-02-02T08:56:07.996Z,2.50
2019-02-02T09:00:17.714Z,2.50
2019-02-02T09:04:25.980Z,2.50
2019-02-02T09:08:34.257Z,2.50
2019-02-02T09:12:42.562Z,2.50
2019-02-02T09:16:50.852Z,2.50
2019-02-02T09:20:59.106Z,2.50
2019-02-02T09:25:09.742Z,2.50
2019-02-02T09:29:18.090Z,2.50
2019-02-02T09:33:26.356Z,2.50
2019-02-02T09:37:34.696Z,2.50
2019-02-02T09:41:43.000Z,2.50
2019-02-02T09:45:51.483Z,2.60
2019-02-02T09:49:59.746Z,2.50
2019-02-02T09:54:09.181Z,2.40
2019-02-02T09:58:16.274Z,2.30
2019-02-02T10:02:26.986Z,2.20
2019-02-02T10:06:32.799Z,2.20
2019-02-02T10:10:41.090Z,2.20
2019-02-02T10:14:49.349Z,2.10
2019-02-02T10:18:57.563Z,2.10
2019-02-02T10:23:05.890Z,2.00
2019-02-02T10:27:14.162Z,2.00
2019-02-02T10:31:22.442Z,2.00
2019-02-02T10:35:30.714Z,2.00
2019-02-02T10:39:40.581Z,2.00
2019-02-02T10:43:48.882Z,1.90
2019-02-02T10:47:57.141Z,1.80
2019-02-02T10:52:05.416Z,1.80
2019-02-02T10:56:13.695Z,1.80
2019-02-02T11:00:24.079Z,1.80
2019-02-02T11:04:32.328Z,1.80
2019-02-02T11:08:40.584Z,1.90
2019-02-02T11:12:48.864Z,1.90
2019-02-02T11:16:57.231Z,2.00
2019-02-02T11:21:05.481Z,2.20
2019-02-02T11:25:13.848Z,2.30
2019-02-02T11:29:22.255Z,2.20
2019-02-02T11:33:30.414Z,2.30
2019-02-02T11:37:38.702Z,2.30
2019-02-02T11:41:46.972Z,2.40
2019-02-02T11:45:55.206Z,2.40
2019-02-02T11:50:03.509Z,2.50
2019-02-02T11:54:11.797Z,2.50
2019-02-02T11:58:20.031Z,2.50
2019-02-02T12:02:28.342Z,2.50
2019-02-02T12:06:36.589Z,2.40
2019-02-02T12:10:44.862Z,2.40
2019-02-02T12:14:53.223Z,2.40
2019-02-02T12:19:01.479Z,2.40
2019-02-02T12:23:09.722Z,2.40
2019-02-02T12:27:17.999Z,2.40
2019-02-02T12:31:26.275Z,2.40
2019-02-02T12:35:34.603Z,2.40
2019-02-02T12:39:42.871Z,2.40
2019-02-02T12:43:51.149Z,2.40
2019-02-02T12:47:59.411Z,2.40
2019-02-02T12:52:07.700Z,2.40
2019-02-02T12:56:15.980Z,2.40
2019-02-02T13:00:24.252Z,2.40
2019-02-02T13:04:32.503Z,2.40
2019-02-02T13:08:40.790Z,2.40
2019-02-02T13:12:49.148Z,2.40
2019-02-02T13:16:59.847Z,2.30
2019-02-02T13:21:05.664Z,2.30
2019-02-02T13:25:15.810Z,2.20
2019-02-02T13:29:24.039Z,2.20
2019-02-02T13:33:32.307Z,2.10
2019-02-02T13:37:40.563Z,2.10
2019-02-02T13:41:48.817Z,2.10
2019-02-02T13:45:57.069Z,2.10
2019-02-02T13:50:07.116Z,2.10
2019-02-02T13:54:42.082Z,2.10
2019-02-02T13:58:51.305Z,2.10
2019-02-02T14:03:03.362Z,2.00
2019-02-02T14:07:17.885Z,2.00
2019-02-02T14:11:16.186Z,2.00
2019-02-02T14:15:24.558Z,2.00
2019-02-02T14:19:32.889Z,1.90
2019-02-02T14:23:41.123Z,1.90
2019-02-02T14:27:49.387Z,1.80
2019-02-02T14:31:59.317Z,1.80
2019-02-02T14:36:07.568Z,1.80
2019-02-02T14:40:16.921Z,1.80
2019-02-02T14:44:25.142Z,1.80
2019-02-02T14:48:33.420Z,1.80
2019-02-02T14:52:41.925Z,1.90
2019-02-02T15:00:58.284Z,1.80
2019-02-02T15:05:06.830Z,1.80
2019-02-02T15:09:15.191Z,1.90
2019-02-02T15:13:23.632Z,1.80
2019-02-02T15:17:31.911Z,1.90
2019-02-02T15:21:40.251Z,1.90
2019-02-02T15:25:48.708Z,1.90
2019-02-02T15:29:56.983Z,1.90
2019-02-02T15:34:05.216Z,1.90
2019-02-02T15:38:13.571Z,1.90
2019-02-02T15:42:21.849Z,1.90
2019-02-02T15:46:30.191Z,1.90
2019-02-02T15:50:38.643Z,1.80
2019-02-02T15:54:47.103Z,1.70
2019-02-02T15:58:55.398Z,1.70
2019-02-02T16:03:03.724Z,1.70
2019-02-02T16:07:12.228Z,1.70
2019-02-02T16:11:20.482Z,1.60
2019-02-02T16:15:28.963Z,1.60
2019-02-02T16:19:37.359Z,1.60
2019-02-02T16:23:45.718Z,1.60
2019-02-02T16:27:54.007Z,1.50
2019-02-02T16:32:02.376Z,1.50
2019-02-02T16:36:10.790Z,1.50
2019-02-02T16:40:21.091Z,1.50
2019-02-02T16:44:29.350Z,1.40
2019-02-02T16:48:37.632Z,1.40
2019-02-02T16:52:46.090Z,1.40
2019-02-02T16:56:54.422Z,1.40
2019-02-02T17:01:02.746Z,1.40
2019-02-02T17:05:11.115Z,1.40
2019-02-02T17:09:19.400Z,1.50
2019-02-02T17:13:27.707Z,1.40
2019-02-02T17:17:36.033Z,1.40
2019-02-02T17:21:44.364Z,1.40
2019-02-02T17:25:52.711Z,1.40
2019-02-02T17:30:01.178Z,1.40
2019-02-02T17:34:09.454Z,1.40
2019-02-02T17:38:17.702Z,1.40
2019-02-02T17:42:25.938Z,1.50
2019-02-02T17:46:34.199Z,1.50
2019-02-02T17:50:42.479Z,1.50
2019-02-02T17:54:50.687Z,1.50
2019-02-02T17:58:58.969Z,1.40
2019-02-02T18:03:07.269Z,1.50
2019-02-02T18:07:15.547Z,1.50
2019-02-02T18:11:23.806Z,1.50
2019-02-02T18:15:32.111Z,1.50
2019-02-02T18:19:40.354Z,1.60
2019-02-02T18:23:48.618Z,1.60
2019-02-02T18:27:56.882Z,1.60
2019-02-02T18:32:12.891Z,1.60
2019-02-02T18:36:13.449Z,1.60
2019-02-02T18:40:21.718Z,1.60
2019-02-02T18:44:29.989Z,1.70
2019-02-02T18:48:38.254Z,1.70
2019-02-02T18:52:47.198Z,1.60
2019-02-02T18:56:55.434Z,1.60
2019-02-02T19:01:03.691Z,1.70
2019-02-02T19:05:12.222Z,1.70
2019-02-02T19:09:20.446Z,1.60
2019-02-02T19:13:28.776Z,1.70
2019-02-02T19:17:37.089Z,1.70
2019-02-02T19:21:45.374Z,1.70
2019-02-02T19:25:53.655Z,1.70
2019-02-02T19:30:01.958Z,1.70
2019-02-02T19:34:10.153Z,1.70
2019-02-02T19:38:18.446Z,1.70
2019-02-02T19:42:26.711Z,1.70
2019-02-02T19:46:35.046Z,1.80
2019-02-02T19:50:43.318Z,1.80
2019-02-02T19:54:51.648Z,1.80
2019-02-02T19:58:59.899Z,1.80
2019-02-02T20:03:08.186Z,1.80
2019-02-02T20:07:16.434Z,1.70
2019-02-02T20:11:24.688Z,1.70
2019-02-02T20:15:33.012Z,1.70
2019-02-02T20:19:41.242Z,1.60
2019-02-02T20:23:49.502Z,1.70
2019-02-02T20:27:57.872Z,1.70
2019-02-02T20:32:06.104Z,1.70
2019-02-02T20:36:14.374Z,1.70
2019-02-02T20:40:23.781Z,1.70
2019-02-02T20:44:31.882Z,1.70
2019-02-02T20:48:40.152Z,1.70
2019-02-02T20:52:48.427Z,1.70
2019-02-02T20:56:56.702Z,1.70
2019-02-02T21:01:06.082Z,1.80
2019-02-02T21:05:14.374Z,1.80
2019-02-02T21:09:22.639Z,1.80
2019-02-02T21:13:30.904Z,1.70
2019-02-02T21:17:39.150Z,1.70
2019-02-02T21:21:47.465Z,1.70
2019-02-02T21:25:55.731Z,1.70
2019-02-02T21:30:05.379Z,1.70
2019-02-02T21:34:13.647Z,1.80
2019-02-02T21:38:21.935Z,1.80
2019-02-02T21:42:30.230Z,1.80
2019-02-02T21:46:38.529Z,1.80
2019-02-02T21:50:46.817Z,1.80
2019-02-02T21:54:55.090Z,1.80
2019-02-02T21:59:03.362Z,1.80
2019-02-02T22:03:11.619Z,1.70
2019-02-02T22:07:19.879Z,1.70
2019-02-02T22:11:28.195Z,1.70
2019-02-02T22:15:36.474Z,1.70
2019-02-02T22:19:44.733Z,1.70
2019-02-02T22:23:54.850Z,1.70
2019-02-02T22:28:01.319Z,1.70
2019-02-02T22:32:09.573Z,1.70
2019-02-02T22:36:26.961Z,1.70
2019-02-02T22:40:26.944Z,1.70
2019-02-02T22:44:35.254Z,1.70
2019-02-02T22:48:43.489Z,1.60
2019-02-02T22:52:51.758Z,1.60
2019-02-02T22:57:00.032Z,1.50
2019-02-02T23:01:14.003Z,1.50
2019-02-02T23:05:35.658Z,1.50
2019-02-02T23:10:59.124Z,1.60
2019-02-02T23:15:18.456Z,1.60
2019-02-02T23:19:26.764Z,1.60
2019-02-02T23:23:35.036Z,1.60
2019-02-02T23:27:43.304Z,1.60
2019-02-02T23:31:51.610Z,1.60
2019-02-02T23:35:59.934Z,1.60
2019-02-02T23:40:09.225Z,1.70
2019-02-02T23:44:17.481Z,1.70
2019-02-02T23:48:25.755Z,1.60
2019-02-02T23:52:34.013Z,1.60
2019-02-02T23:56:42.284Z,1.50
